Pagina principale
METAR-TAF:

METAR-TAF

Aeroporti :

Town MET

Windhoek, Namibia

latitudine: 22-34S, longitudine: 017-06E, altezza: 1725 m

Osservazione

Il bollettino è stato emesso 7 ore e 52 minuti fa, alle 15:00 UTC
Vento 4 kt da est/sud-est
Temperature 19°C
Umidità 21%
Pressione 1025 hPa
Visibilità 10 km o più
nessuna nube inferiore a 1500 m e nessun cumulonembo

METAR: FYWW 161500Z 12004KT CAVOK 19/M04 Q1025

Ora: 23:52 (22:52 UTC)


TAF: mancante

Osservazioni e previsioni meteorologiche di più di 4000 aeroporti (messaggi METAR e TAF).

Le stazioni disponibili sono rappresentate dai dischi gialli e rossi sulla carta.

Puntare il mouse per vedere il nome della stazione.

Clicca sopra per visualizzare le osservazioni e previsioni meteorologiche.

Per cambiare la mappa : fare clic sui pulsanti verdi con una croce nera per ingrandire, il pulsante verde con un trattino per diminuire, o sulla freccia verde per le mappe adiacenti.


METAR-TAF: